Aérodrome :
LOGIN :

S'inscrire | Disclaimer

   EN    FR    IT 

 










Légende :    VFR   VFR Marginal   IFR   IFR Intensif   IFR Très Intensif
Visi : 
Plafond : 
>= 8 km
>= 3000ft
5 à 8 km
1000 à 3000 ft
1500m à 5 km
500 à 1000 ft
800 à 1500m
200 à 500 ft
< 800m
< 200 ft
Symboles :   Orages  Brouillard  Fortes neiges  Fortes précipitations  Vent > 20 kt
SIGMETs :   Divers  Orages  Givrage  Turbulence  Onde Orograph.  Cendres Volcan.







- Altitude de l'aérodrome : 235 ft
- Code IATA : BZG


EPBY - Bydgoszcz

DERNIER METAR :
  • 141000Z 22007KT 180V260 9999 FEW007 BKN010 20/18 Q1009

METARs EXPIRÉS :
  • 140930Z 22005KT 180V250 9999 SCT005 BKN010 20/18 Q1009
  • 140900Z 22008KT 9999 FEW005 BKN011 19/18 Q1009
  • 140830Z 20004KT 170V230 9999 -RA FEW037 SCT048 18/18 Q1009
  • 140730Z 23004KT 190V260 9999 -RA FEW048 18/17 Q1009

TAF AMD TAF EPBY
Valide du 14 à 09h jusqu'au 15 à 06h UTC


140955Z 1409/1506 22005KT 9999 SCT005 BKN010
BECMG 1409/1411 SCT030
PROB40
TEMPO 1412/1420 25015G28KT SHRA BKN030CB
PROB30
TEMPO 1412/1415 TSRA
Pas de NOTAMs connus pour ce terrain.
1 SIGMET publié pour la FIR Warszawa (EPWW) :
 
Orages noyés dans la masse
EPWW SIGMET 2 VALID 140805/141205 EPWA
EPWW WARSAW FIR EMBD TS OBS WI N5520 E01800 - N5430 E01650 - N5000 E01750 - N4930 E01920 - N5420 E02030 - N5520 E01800 TOP FL380 MOV NNE INTSF=



MET'MAP, la Météo Aéronautique d'un coup d'oeil ! - Copyright ORBIFLY Décembre 2007 - Disclaimer

ORBIFLY MET'MAP TEAM :

Programmation & Développement : Alexandra Zaïnal
Conception & Développement : Baudouin d'Aumeries
Co-Programmation & Développement : Marc-Olivier Méhu
Soutien technique & logistique : Manuel Goepfert

Contact : metmap@orbifly.com




SOURCES & CREDITS :

   NOAA